createdAt,value
2024-01-16T00:01:08.347Z,3.90
2024-01-16T00:03:35.162Z,3.15
2024-01-16T00:06:02.266Z,4.38
2024-01-16T00:08:29.113Z,5.63
2024-01-16T00:10:55.987Z,16.92
2024-01-16T00:13:22.938Z,21.65
2024-01-16T00:15:50.860Z,8.52
2024-01-16T00:18:17.903Z,5.57
2024-01-16T00:20:45.183Z,3.97
2024-01-16T00:23:12.357Z,10.07
2024-01-16T00:25:39.185Z,5.22
2024-01-16T00:28:06.352Z,3.70
2024-01-16T00:30:34.722Z,1.95
2024-01-16T00:33:01.668Z,3.17
2024-01-16T00:35:28.596Z,2.45
2024-01-16T00:37:55.421Z,3.40
2024-01-16T00:40:22.260Z,70.13
2024-01-16T00:42:49.007Z,22.67
2024-01-16T00:45:15.908Z,16.35
2024-01-16T00:47:42.933Z,6.72
2024-01-16T00:50:10.644Z,7.75
2024-01-16T00:52:37.521Z,5.88
2024-01-16T00:55:05.621Z,1.88
2024-01-16T00:57:32.462Z,4.78
2024-01-16T00:59:59.278Z,3.25
2024-01-16T01:02:26.148Z,1.65
2024-01-16T01:04:53.025Z,3.20
2024-01-16T01:07:20.015Z,2.03
2024-01-16T01:09:46.781Z,2.25
2024-01-16T01:12:13.629Z,1.15
2024-01-16T01:14:40.518Z,2.75
2024-01-16T01:17:07.774Z,1.05
2024-01-16T01:19:34.809Z,2.70
2024-01-16T01:22:01.728Z,1.83
2024-01-16T01:24:28.666Z,2.28
2024-01-16T01:26:55.665Z,0.90
2024-01-16T01:29:22.572Z,1.58
2024-01-16T01:31:49.423Z,0.30
2024-01-16T01:34:17.108Z,0.82
2024-01-16T01:36:44.599Z,0.43
2024-01-16T01:39:12.360Z,2.47
2024-01-16T01:41:39.803Z,1.33
2024-01-16T01:44:07.804Z,2.28
2024-01-16T01:46:35.722Z,1.98
2024-01-16T01:49:02.695Z,1.65
2024-01-16T01:51:29.662Z,10.57
2024-01-16T01:53:56.760Z,2.08
2024-01-16T01:56:24.049Z,1.65
2024-01-16T01:58:52.960Z,1.08
2024-01-16T02:03:47.377Z,2.65
2024-01-16T02:06:14.764Z,2.67
2024-01-16T02:08:42.105Z,2.20
2024-01-16T02:11:09.391Z,1.10
2024-01-16T02:13:36.558Z,0.47
2024-01-16T02:16:04.587Z,0.70
2024-01-16T02:18:31.534Z,2.15
2024-01-16T02:21:02.880Z,1.05
2024-01-16T02:23:29.742Z,4.13
2024-01-16T02:25:56.611Z,2.53
2024-01-16T02:28:23.527Z,2.88
2024-01-16T02:30:50.519Z,3.50
2024-01-16T02:33:17.556Z,3.30
2024-01-16T02:35:44.671Z,1.80
2024-01-16T02:38:11.686Z,3.05
2024-01-16T02:40:38.546Z,2.83
2024-01-16T02:43:05.435Z,1.55
2024-01-16T02:45:32.305Z,2.28
2024-01-16T02:47:59.220Z,1.92
2024-01-16T02:50:26.270Z,2.03
2024-01-16T02:52:53.247Z,1.38
2024-01-16T02:55:20.508Z,2.33
2024-01-16T02:57:47.351Z,2.42
2024-01-16T03:00:15.053Z,4.25
2024-01-16T03:02:42.353Z,3.42
2024-01-16T03:05:09.685Z,3.55
2024-01-16T03:07:36.812Z,5.80
2024-01-16T03:10:04.173Z,10.32
2024-01-16T03:12:31.020Z,6.43
2024-01-16T03:14:57.942Z,7.07
2024-01-16T03:17:24.987Z,7.53
2024-01-16T03:19:51.867Z,5.88
2024-01-16T03:22:19.668Z,6.88
2024-01-16T03:24:47.174Z,4.80
2024-01-16T03:27:14.618Z,6.85
2024-01-16T03:29:41.654Z,6.88
2024-01-16T03:32:09.189Z,4.57
2024-01-16T03:34:36.212Z,3.60
2024-01-16T03:37:03.137Z,7.22
2024-01-16T03:39:29.883Z,5.75
2024-01-16T03:41:56.828Z,3.55
2024-01-16T03:44:23.760Z,6.53
2024-01-16T03:46:50.613Z,4.03
2024-01-16T03:49:17.535Z,4.88
2024-01-16T03:51:47.480Z,4.70
2024-01-16T03:54:14.678Z,5.03
2024-01-16T03:56:41.757Z,4.18
2024-01-16T03:59:08.872Z,6.68
2024-01-16T04:01:38.364Z,37.60
2024-01-16T04:04:08.038Z,4.95
2024-01-16T04:06:35.277Z,5.32
2024-01-16T04:09:02.441Z,3.30
2024-01-16T04:11:31.064Z,13.45
2024-01-16T04:13:58.186Z,9.73
2024-01-16T04:16:25.433Z,6.97
2024-01-16T04:18:52.297Z,3.67
2024-01-16T04:21:20.792Z,5.00
2024-01-16T04:23:48.120Z,7.25
2024-01-16T04:26:15.242Z,8.15
2024-01-16T04:28:42.972Z,8.88
2024-01-16T04:31:09.857Z,11.18
2024-01-16T04:33:36.841Z,9.38
2024-01-16T04:36:03.923Z,8.38
2024-01-16T04:38:30.857Z,13.93
2024-01-16T04:40:57.703Z,6.85
2024-01-16T04:43:24.592Z,20.50
2024-01-16T04:45:51.453Z,9.93
2024-01-16T04:48:18.498Z,2.22
2024-01-16T04:50:46.882Z,2.63
2024-01-16T04:53:14.064Z,2.78
2024-01-16T04:55:41.024Z,9.95
2024-01-16T04:58:08.797Z,6.82
2024-01-16T05:00:35.658Z,4.85
2024-01-16T05:03:06.302Z,3.65
2024-01-16T05:05:33.412Z,4.57
2024-01-16T05:08:02.437Z,5.95
2024-01-16T05:12:55.949Z,4.95
2024-01-16T05:15:22.725Z,4.32
2024-01-16T05:17:49.677Z,4.18
2024-01-16T05:20:16.811Z,2.65
2024-01-16T05:22:43.578Z,2.80
2024-01-16T05:25:10.532Z,1.75
2024-01-16T05:27:37.353Z,0.95
2024-01-16T05:30:04.804Z,2.25
2024-01-16T05:32:31.895Z,2.28
2024-01-16T05:34:59.178Z,3.50
2024-01-16T05:37:26.019Z,3.53
2024-01-16T05:39:52.899Z,2.92
2024-01-16T05:42:19.789Z,7.93
2024-01-16T05:44:46.682Z,9.90
2024-01-16T05:47:13.620Z,8.80
2024-01-16T05:49:40.790Z,6.85
2024-01-16T05:52:08.688Z,3.58
2024-01-16T05:54:35.521Z,3.53
2024-01-16T05:57:02.236Z,2.10
2024-01-16T05:59:31.840Z,3.42
2024-01-16T06:01:58.737Z,1.17
2024-01-16T06:04:25.702Z,2.72
2024-01-16T06:06:52.634Z,5.47
2024-01-16T06:09:19.798Z,5.28
2024-01-16T06:11:46.651Z,4.93
2024-01-16T06:14:14.501Z,3.08
2024-01-16T06:16:41.457Z,3.17
2024-01-16T06:19:09.604Z,4.68
2024-01-16T06:21:36.606Z,8.93
2024-01-16T06:24:03.528Z,9.45
2024-01-16T06:26:30.452Z,18.00
2024-01-16T06:28:57.380Z,19.20
2024-01-16T06:31:26.982Z,26.63
2024-01-16T06:33:54.003Z,60.35
2024-01-16T06:36:21.278Z,112.35
2024-01-16T06:38:48.295Z,93.18
2024-01-16T06:41:15.366Z,31.65
2024-01-16T06:43:42.319Z,32.40
2024-01-16T06:46:09.135Z,47.38
2024-01-16T06:48:38.251Z,40.70
2024-01-16T06:51:05.986Z,20.63
2024-01-16T06:53:32.853Z,28.95
2024-01-16T06:55:59.879Z,29.17
2024-01-16T06:58:26.727Z,28.23
2024-01-16T07:00:53.621Z,19.42
2024-01-16T07:03:20.415Z,22.88
2024-01-16T07:05:47.426Z,20.70
2024-01-16T07:08:14.307Z,12.18
2024-01-16T07:10:41.145Z,10.23
2024-01-16T07:13:08.745Z,13.00
2024-01-16T07:15:35.490Z,14.57
2024-01-16T07:18:02.462Z,6.10
2024-01-16T07:20:29.535Z,7.00
2024-01-16T07:22:56.533Z,7.90
2024-01-16T07:25:23.577Z,8.63
2024-01-16T07:27:51.134Z,7.45
2024-01-16T07:30:18.056Z,6.00
2024-01-16T07:32:45.089Z,32.35
2024-01-16T07:35:12.202Z,31.77
2024-01-16T07:37:39.322Z,45.03
2024-01-16T07:40:10.864Z,41.22
2024-01-16T07:42:37.749Z,25.42
2024-01-16T07:45:05.777Z,13.07
2024-01-16T07:50:01.741Z,4.82
2024-01-16T07:52:29.802Z,4.28
2024-01-16T07:54:56.669Z,4.35
2024-01-16T07:57:23.530Z,4.55
2024-01-16T07:59:50.396Z,4.38
2024-01-16T08:02:18.530Z,6.20
2024-01-16T08:04:45.557Z,6.22
2024-01-16T08:07:12.337Z,6.32
2024-01-16T08:09:39.178Z,6.32
2024-01-16T08:12:07.181Z,15.68
2024-01-16T08:14:34.151Z,17.17
2024-01-16T08:17:01.223Z,12.85
2024-01-16T08:19:28.109Z,6.38
2024-01-16T08:21:54.910Z,8.25
2024-01-16T08:24:21.801Z,10.75
2024-01-16T08:26:49.130Z,13.48
2024-01-16T08:29:15.977Z,13.75
2024-01-16T08:31:42.859Z,12.93
2024-01-16T08:34:09.765Z,16.00
2024-01-16T08:36:36.756Z,15.35
2024-01-16T08:39:04.273Z,17.33
2024-01-16T08:41:31.316Z,14.88
2024-01-16T08:43:58.163Z,9.65
2024-01-16T08:46:24.941Z,11.30
2024-01-16T08:48:51.995Z,10.00
2024-01-16T08:51:18.860Z,10.68
2024-01-16T08:53:45.677Z,11.82
2024-01-16T08:56:13.773Z,9.88
2024-01-16T09:01:09.038Z,6.50
2024-01-16T09:03:35.913Z,5.85
2024-01-16T09:06:03.058Z,17.90
2024-01-16T09:08:30.297Z,7.53
2024-01-16T09:10:57.213Z,5.60
2024-01-16T09:13:24.679Z,4.15
2024-01-16T09:15:51.614Z,6.65
2024-01-16T09:18:18.763Z,4.18
2024-01-16T09:20:45.885Z,4.60
2024-01-16T09:23:14.107Z,3.80
2024-01-16T09:25:41.438Z,6.47
2024-01-16T09:28:08.405Z,5.32
2024-01-16T09:30:35.357Z,3.47
2024-01-16T09:33:02.763Z,4.40
2024-01-16T09:35:29.681Z,3.00
2024-01-16T09:37:56.603Z,6.20
2024-01-16T09:40:23.507Z,6.20
2024-01-16T09:42:50.671Z,5.63
2024-01-16T09:45:21.016Z,7.55
2024-01-16T09:47:51.486Z,7.00
2024-01-16T09:50:21.567Z,6.70
2024-01-16T09:52:48.841Z,6.68
2024-01-16T09:55:16.374Z,5.85
2024-01-16T09:57:43.422Z,3.13
2024-01-16T10:00:12.804Z,3.65
2024-01-16T10:02:43.457Z,2.33
2024-01-16T10:05:11.826Z,8.77
2024-01-16T10:07:39.491Z,5.68
2024-01-16T10:10:06.889Z,4.78
2024-01-16T10:12:34.203Z,2.25
2024-01-16T10:15:01.185Z,6.15
2024-01-16T10:17:41.571Z,5.15
2024-01-16T10:22:35.902Z,3.55
2024-01-16T10:25:10.160Z,2.60
2024-01-16T10:27:37.903Z,2.30
2024-01-16T10:30:05.764Z,2.33
2024-01-16T10:32:39.165Z,1.98
2024-01-16T10:35:10.155Z,2.47
2024-01-16T10:37:46.900Z,2.33
2024-01-16T10:40:17.810Z,3.20
2024-01-16T10:42:45.583Z,2.75
2024-01-16T10:45:18.761Z,2.72
2024-01-16T10:47:47.456Z,9.20
2024-01-16T10:50:14.512Z,5.60
2024-01-16T10:52:50.351Z,2.05
2024-01-16T10:55:23.956Z,4.68
2024-01-16T10:57:51.794Z,3.65
2024-01-16T11:00:22.738Z,2.28
2024-01-16T11:03:09.060Z,17.65
2024-01-16T11:05:36.128Z,2.22
2024-01-16T11:08:03.101Z,14.15
2024-01-16T11:10:29.996Z,17.67
2024-01-16T11:12:57.304Z,8.77
2024-01-16T11:15:24.204Z,6.80
2024-01-16T11:17:51.410Z,2.97
2024-01-16T11:20:37.531Z,1.25
2024-01-16T11:23:05.160Z,5.90
2024-01-16T11:25:33.636Z,1.00
2024-01-16T11:28:21.179Z,3.42
2024-01-16T11:30:49.286Z,0.77
2024-01-16T11:33:34.532Z,1.70
2024-01-16T11:36:01.928Z,1.40
2024-01-16T11:38:29.043Z,1.70
2024-01-16T11:40:56.848Z,4.10
2024-01-16T11:43:41.393Z,2.25
2024-01-16T11:46:08.876Z,27.55
2024-01-16T11:48:36.459Z,5.30
2024-01-16T11:51:23.723Z,4.85
2024-01-16T11:53:50.731Z,2.63
2024-01-16T11:56:30.871Z,5.78
2024-01-16T11:59:29.395Z,18.90
2024-01-16T12:01:59.679Z,4.38
2024-01-16T12:04:28.956Z,5.30
2024-01-16T12:09:29.442Z,21.58
2024-01-16T12:12:03.021Z,10.82
2024-01-16T12:14:30.534Z,8.48
2024-01-16T12:17:20.061Z,14.27
2024-01-16T12:19:47.984Z,27.88
2024-01-16T12:22:15.166Z,13.90
2024-01-16T12:24:42.160Z,8.90
2024-01-16T12:27:10.285Z,11.73
2024-01-16T12:29:37.748Z,18.17
2024-01-16T12:32:12.369Z,29.42
2024-01-16T12:37:14.284Z,12.10
2024-01-16T12:39:42.928Z,15.88
2024-01-16T12:42:11.189Z,18.70
2024-01-16T12:44:38.105Z,12.32
2024-01-16T12:47:05.187Z,16.83
2024-01-16T12:49:32.205Z,10.80
2024-01-16T12:52:19.337Z,16.42
2024-01-16T12:54:46.569Z,16.00
2024-01-16T12:57:18.793Z,16.25
2024-01-16T12:59:45.820Z,11.00
2024-01-16T13:02:21.798Z,10.38
2024-01-16T13:04:49.027Z,12.73
2024-01-16T13:07:21.891Z,12.63
2024-01-16T13:09:48.794Z,11.68
2024-01-16T13:12:22.377Z,13.25
2024-01-16T13:14:49.245Z,19.67
2024-01-16T13:17:16.237Z,10.85
2024-01-16T13:19:43.284Z,13.68
2024-01-16T13:22:10.199Z,12.80
2024-01-16T13:24:37.383Z,11.57
2024-01-16T13:27:05.933Z,10.32
2024-01-16T13:29:36.752Z,8.30
2024-01-16T13:32:03.660Z,8.07
2024-01-16T13:34:30.631Z,10.95
2024-01-16T13:37:15.009Z,5.38
2024-01-16T13:39:43.639Z,4.10
2024-01-16T13:42:10.445Z,9.27
2024-01-16T13:44:37.523Z,9.15
2024-01-16T13:47:08.963Z,8.55
2024-01-16T13:49:39.433Z,6.78
2024-01-16T13:52:07.180Z,10.48
2024-01-16T13:54:33.998Z,8.20
2024-01-16T13:57:06.824Z,5.97
2024-01-16T13:59:36.478Z,6.55
2024-01-16T14:02:05.617Z,10.02
2024-01-16T14:04:32.471Z,14.13
2024-01-16T14:07:11.081Z,18.13
2024-01-16T14:09:43.064Z,15.50
2024-01-16T14:12:10.761Z,16.77
2024-01-16T14:14:39.803Z,11.38
2024-01-16T14:17:06.819Z,10.30
2024-01-16T14:19:36.441Z,11.05
2024-01-16T14:22:03.719Z,14.93
2024-01-16T14:24:30.647Z,17.85
2024-01-16T14:27:00.250Z,33.80
2024-01-16T14:29:28.352Z,20.55
2024-01-16T14:31:57.916Z,13.55
2024-01-16T14:34:25.991Z,9.77
2024-01-16T14:36:54.657Z,11.85
2024-01-16T14:39:26.820Z,17.33
2024-01-16T14:41:54.774Z,19.30
2024-01-16T14:44:22.109Z,14.82
2024-01-16T14:46:51.871Z,22.45
2024-01-16T14:49:20.391Z,19.13
2024-01-16T14:51:47.934Z,19.77
2024-01-16T14:54:15.032Z,21.75
2024-01-16T14:56:42.188Z,25.67
2024-01-16T14:59:13.196Z,55.63
2024-01-16T15:01:42.260Z,51.42
2024-01-16T15:04:09.426Z,52.40
2024-01-16T15:06:36.633Z,25.48
2024-01-16T15:09:03.684Z,25.15
2024-01-16T15:11:30.581Z,35.80
2024-01-16T15:14:00.214Z,70.47
2024-01-16T15:16:27.379Z,64.55
2024-01-16T15:18:54.361Z,63.20
2024-01-16T15:21:21.264Z,61.42
2024-01-16T15:23:48.197Z,51.17
2024-01-16T15:26:20.606Z,50.78
2024-01-16T15:28:50.190Z,46.10
2024-01-16T15:31:17.922Z,42.00
2024-01-16T15:33:45.524Z,48.75
2024-01-16T15:36:12.471Z,46.78
2024-01-16T15:38:39.461Z,40.03
2024-01-16T15:41:06.539Z,55.47
2024-01-16T15:43:33.424Z,54.55
2024-01-16T15:46:00.941Z,40.42
2024-01-16T15:48:34.398Z,43.88
2024-01-16T15:51:01.749Z,39.80
2024-01-16T15:53:28.919Z,42.13
2024-01-16T15:55:55.815Z,48.05
2024-01-16T15:58:22.678Z,43.55
2024-01-16T16:00:49.618Z,45.38
2024-01-16T16:03:16.767Z,55.17
2024-01-16T16:05:43.709Z,45.15
2024-01-16T16:08:11.674Z,59.33
2024-01-16T16:10:38.586Z,55.42
2024-01-16T16:13:05.600Z,48.03
2024-01-16T16:15:33.040Z,42.50
2024-01-16T16:18:00.154Z,33.55
2024-01-16T16:20:27.482Z,31.67
2024-01-16T16:22:54.798Z,34.50
2024-01-16T16:25:21.745Z,28.33
2024-01-16T16:27:49.026Z,29.67
2024-01-16T16:30:16.216Z,36.78
2024-01-16T16:32:43.475Z,59.63
2024-01-16T16:35:11.349Z,33.67
2024-01-16T16:37:38.165Z,26.38
2024-01-16T16:40:06.309Z,38.78
2024-01-16T16:42:33.524Z,36.72
2024-01-16T16:45:00.673Z,51.38
2024-01-16T16:47:27.850Z,36.83
2024-01-16T16:49:54.724Z,33.03
2024-01-16T16:52:21.766Z,27.35
2024-01-16T16:54:49.715Z,31.83
2024-01-16T16:57:16.725Z,26.10
2024-01-16T16:59:43.711Z,27.38
2024-01-16T17:02:11.281Z,26.00
2024-01-16T17:04:38.363Z,28.20
2024-01-16T17:07:05.476Z,32.80
2024-01-16T17:09:32.932Z,39.65
2024-01-16T17:11:59.958Z,32.47
2024-01-16T17:14:26.917Z,35.42
2024-01-16T17:16:53.844Z,29.80
2024-01-16T17:19:20.806Z,33.65
2024-01-16T17:21:47.746Z,26.13
2024-01-16T17:24:15.328Z,38.08
2024-01-16T17:26:43.088Z,33.53
2024-01-16T17:29:10.055Z,35.53
2024-01-16T17:31:38.119Z,35.20
2024-01-16T17:34:06.779Z,35.70
2024-01-16T17:36:33.866Z,34.65
2024-01-16T17:39:01.835Z,41.92
2024-01-16T17:41:31.139Z,45.60
2024-01-16T17:43:58.487Z,42.20
2024-01-16T17:46:25.488Z,41.72
2024-01-16T17:48:52.682Z,37.65
2024-01-16T17:51:19.700Z,34.22
2024-01-16T17:53:49.259Z,30.02
2024-01-16T17:56:16.898Z,31.83
2024-01-16T17:58:44.766Z,33.40
2024-01-16T18:01:13.059Z,31.58
2024-01-16T18:03:44.908Z,33.08
2024-01-16T18:06:18.655Z,36.28
2024-01-16T18:08:46.128Z,32.05
2024-01-16T18:11:14.236Z,34.17
2024-01-16T18:13:43.642Z,32.15
2024-01-16T18:16:12.629Z,33.47
2024-01-16T18:18:40.191Z,37.70
2024-01-16T18:21:07.644Z,76.22
2024-01-16T18:23:36.320Z,79.10
2024-01-16T18:26:05.792Z,39.80
2024-01-16T18:28:32.893Z,40.88
2024-01-16T18:31:00.077Z,41.83
2024-01-16T18:33:27.232Z,31.15
2024-01-16T18:35:59.206Z,41.47
2024-01-16T18:38:28.816Z,73.63
2024-01-16T18:40:57.510Z,43.75
2024-01-16T18:43:24.770Z,34.17
2024-01-16T18:45:53.477Z,27.88
2024-01-16T18:48:20.720Z,50.33
2024-01-16T18:50:51.952Z,54.38
2024-01-16T18:53:21.176Z,54.85
2024-01-16T18:55:49.161Z,53.20
2024-01-16T18:58:16.056Z,61.13
2024-01-16T19:00:43.580Z,60.70
2024-01-16T19:03:11.579Z,41.90
2024-01-16T19:05:38.770Z,50.65
2024-01-16T19:08:05.785Z,95.32
2024-01-16T19:10:32.538Z,60.85
2024-01-16T19:12:59.381Z,34.42
2024-01-16T19:15:26.332Z,39.33
2024-01-16T19:17:54.495Z,30.33
2024-01-16T19:20:24.776Z,33.58
2024-01-16T19:22:53.682Z,34.47
2024-01-16T19:25:22.746Z,30.88
2024-01-16T19:27:50.498Z,36.53
2024-01-16T19:30:21.091Z,51.75
2024-01-16T19:32:49.613Z,44.17
2024-01-16T19:35:17.645Z,43.97
2024-01-16T19:37:45.701Z,54.28
2024-01-16T19:40:14.310Z,44.00
2024-01-16T19:42:41.845Z,43.30
2024-01-16T19:45:10.676Z,28.33
2024-01-16T19:47:43.413Z,40.58
2024-01-16T19:50:21.800Z,37.13
2024-01-16T19:52:51.868Z,36.17
2024-01-16T19:55:22.911Z,44.70
2024-01-16T19:57:50.417Z,40.47
2024-01-16T20:00:18.084Z,30.10
2024-01-16T20:02:45.312Z,33.15
2024-01-16T20:05:17.003Z,35.40
2024-01-16T20:07:44.686Z,32.78
2024-01-16T20:10:15.230Z,38.97
2024-01-16T20:12:46.338Z,34.88
2024-01-16T20:15:14.525Z,28.25
2024-01-16T20:17:45.329Z,55.70
2024-01-16T20:20:14.556Z,55.08
2024-01-16T20:22:41.912Z,39.42
2024-01-16T20:25:14.094Z,36.05
2024-01-16T20:27:41.874Z,34.40
2024-01-16T20:30:09.994Z,36.80
2024-01-16T20:32:40.493Z,42.38
2024-01-16T20:35:09.006Z,46.72
2024-01-16T20:37:35.941Z,43.88
2024-01-16T20:40:03.683Z,39.25
2024-01-16T20:42:31.641Z,40.42
2024-01-16T20:44:58.669Z,40.00
2024-01-16T20:47:25.667Z,37.33
2024-01-16T20:49:52.660Z,38.97
2024-01-16T20:52:20.261Z,34.88
2024-01-16T20:54:47.098Z,30.80
2024-01-16T20:57:14.654Z,31.13
2024-01-16T20:59:41.713Z,42.67
2024-01-16T21:02:08.643Z,24.35
2024-01-16T21:04:35.748Z,28.30
2024-01-16T21:07:05.200Z,27.77
2024-01-16T21:09:32.561Z,21.90
2024-01-16T21:12:02.097Z,20.90
2024-01-16T21:14:30.716Z,20.02
2024-01-16T21:16:58.362Z,16.05
2024-01-16T21:19:25.237Z,16.10
2024-01-16T21:21:52.407Z,20.10
2024-01-16T21:24:19.878Z,31.50
2024-01-16T21:26:49.844Z,28.23
2024-01-16T21:29:16.810Z,20.75
2024-01-16T21:31:47.836Z,15.77
2024-01-16T21:34:16.885Z,21.83
2024-01-16T21:36:48.228Z,22.77
2024-01-16T21:39:16.310Z,55.83
2024-01-16T21:41:44.399Z,54.25
2024-01-16T21:44:12.103Z,70.20
2024-01-16T21:46:40.303Z,55.42
2024-01-16T21:49:07.211Z,62.38
2024-01-16T21:51:34.084Z,64.68
2024-01-16T21:54:02.664Z,34.75
2024-01-16T21:56:29.617Z,19.55
2024-01-16T21:58:57.815Z,23.38
2024-01-16T22:01:24.639Z,28.98
2024-01-16T22:03:51.402Z,23.42
2024-01-16T22:06:18.414Z,22.15
2024-01-16T22:08:52.261Z,17.85
2024-01-16T22:11:19.329Z,18.48
2024-01-16T22:13:46.473Z,23.27
2024-01-16T22:16:13.318Z,27.60
2024-01-16T22:18:41.384Z,32.30
2024-01-16T22:21:08.641Z,24.02
2024-01-16T22:23:35.613Z,26.27
2024-01-16T22:26:02.830Z,23.45
2024-01-16T22:28:29.863Z,29.02
2024-01-16T22:30:57.566Z,28.38
2024-01-16T22:33:24.714Z,29.98
2024-01-16T22:35:51.719Z,29.95
2024-01-16T22:38:19.619Z,32.42
2024-01-16T22:40:46.717Z,33.00
2024-01-16T22:43:13.578Z,40.90
2024-01-16T22:45:41.031Z,35.25
2024-01-16T22:48:12.680Z,26.23
2024-01-16T22:50:43.414Z,25.35
2024-01-16T22:53:10.473Z,24.63
2024-01-16T22:55:37.243Z,23.63
2024-01-16T22:58:04.459Z,24.52
2024-01-16T23:00:31.742Z,21.80
2024-01-16T23:02:59.071Z,21.35
2024-01-16T23:05:28.506Z,22.67
2024-01-16T23:07:56.660Z,17.88
2024-01-16T23:10:23.574Z,21.75
2024-01-16T23:12:50.363Z,21.30
2024-01-16T23:15:17.141Z,24.40
2024-01-16T23:17:44.166Z,31.10
2024-01-16T23:20:14.541Z,25.45
2024-01-16T23:22:44.562Z,27.50
2024-01-16T23:25:11.754Z,28.55
2024-01-16T23:27:39.316Z,28.48
2024-01-16T23:30:07.106Z,23.85
2024-01-16T23:32:34.253Z,22.20
2024-01-16T23:35:01.649Z,22.02
2024-01-16T23:37:31.319Z,26.92
2024-01-16T23:39:58.701Z,21.17
2024-01-16T23:42:27.133Z,21.13
2024-01-16T23:44:54.962Z,21.20
2024-01-16T23:47:22.103Z,25.73
2024-01-16T23:49:49.015Z,25.25
2024-01-16T23:52:15.934Z,26.38
2024-01-16T23:54:42.760Z,28.80
2024-01-16T23:57:09.737Z,26.55
2024-01-16T23:59:36.597Z,25.73
